sensor_id;sensor_type;location;lat;lon;timestamp;P1;durP1;ratioP1;P2;durP2;ratioP2
13415;SDS011;6779;50.150;8.680;2023-04-08T00:00:48;4.20;;;3.80;;
13415;SDS011;6779;50.150;8.680;2023-04-08T00:03:14;5.77;;;4.10;;
13415;SDS011;6779;50.150;8.680;2023-04-08T00:05:39;4.27;;;3.87;;
13415;SDS011;6779;50.150;8.680;2023-04-08T00:08:04;4.77;;;4.37;;
13415;SDS011;6779;50.150;8.680;2023-04-08T00:10:30;4.70;;;4.20;;
13415;SDS011;6779;50.150;8.680;2023-04-08T00:12:55;4.77;;;4.30;;
13415;SDS011;6779;50.150;8.680;2023-04-08T00:15:21;4.50;;;3.97;;
13415;SDS011;6779;50.150;8.680;2023-04-08T00:17:46;4.53;;;4.13;;
13415;SDS011;6779;50.150;8.680;2023-04-08T00:20:11;4.40;;;4.00;;
13415;SDS011;6779;50.150;8.680;2023-04-08T00:22:36;5.10;;;4.00;;
13415;SDS011;6779;50.150;8.680;2023-04-08T00:25:02;4.73;;;4.20;;
13415;SDS011;6779;50.150;8.680;2023-04-08T00:27:30;4.07;;;3.70;;
13415;SDS011;6779;50.150;8.680;2023-04-08T00:29:56;4.33;;;3.93;;
13415;SDS011;6779;50.150;8.680;2023-04-08T00:32:21;4.80;;;4.30;;
13415;SDS011;6779;50.150;8.680;2023-04-08T00:34:46;4.93;;;4.53;;
13415;SDS011;6779;50.150;8.680;2023-04-08T00:37:11;4.57;;;4.17;;
13415;SDS011;6779;50.150;8.680;2023-04-08T00:39:37;4.80;;;4.40;;
13415;SDS011;6779;50.150;8.680;2023-04-08T00:42:02;5.57;;;4.97;;
13415;SDS011;6779;50.150;8.680;2023-04-08T00:44:27;5.50;;;5.00;;
13415;SDS011;6779;50.150;8.680;2023-04-08T00:46:53;5.97;;;5.37;;
13415;SDS011;6779;50.150;8.680;2023-04-08T00:49:18;4.93;;;4.53;;
13415;SDS011;6779;50.150;8.680;2023-04-08T00:51:44;4.67;;;4.17;;
13415;SDS011;6779;50.150;8.680;2023-04-08T00:54:09;5.23;;;4.70;;
13415;SDS011;6779;50.150;8.680;2023-04-08T00:56:34;6.67;;;6.07;;
13415;SDS011;6779;50.150;8.680;2023-04-08T00:59:00;6.00;;;5.23;;
13415;SDS011;6779;50.150;8.680;2023-04-08T01:04:16;5.40;;;4.90;;
13415;SDS011;6779;50.150;8.680;2023-04-08T01:06:58;5.40;;;4.90;;
13415;SDS011;6779;50.150;8.680;2023-04-08T01:09:29;6.17;;;5.53;;
13415;SDS011;6779;50.150;8.680;2023-04-08T01:11:56;6.60;;;5.93;;
13415;SDS011;6779;50.150;8.680;2023-04-08T01:14:25;5.73;;;5.03;;
13415;SDS011;6779;50.150;8.680;2023-04-08T01:16:53;6.13;;;5.30;;
13415;SDS011;6779;50.150;8.680;2023-04-08T01:19:40;5.60;;;5.03;;
13415;SDS011;6779;50.150;8.680;2023-04-08T01:24:54;5.87;;;5.27;;
13415;SDS011;6779;50.150;8.680;2023-04-08T01:27:26;6.83;;;6.13;;
13415;SDS011;6779;50.150;8.680;2023-04-08T01:29:52;8.17;;;6.77;;
13415;SDS011;6779;50.150;8.680;2023-04-08T01:32:18;6.30;;;5.70;;
13415;SDS011;6779;50.150;8.680;2023-04-08T01:34:44;6.70;;;6.00;;
13415;SDS011;6779;50.150;8.680;2023-04-08T01:37:09;7.40;;;6.53;;
13415;SDS011;6779;50.150;8.680;2023-04-08T01:39:35;6.93;;;6.23;;
13415;SDS011;6779;50.150;8.680;2023-04-08T01:42:01;7.10;;;6.40;;
13415;SDS011;6779;50.150;8.680;2023-04-08T01:44:26;7.27;;;6.57;;
13415;SDS011;6779;50.150;8.680;2023-04-08T01:46:52;7.53;;;6.83;;
13415;SDS011;6779;50.150;8.680;2023-04-08T01:49:18;8.70;;;7.20;;
13415;SDS011;6779;50.150;8.680;2023-04-08T01:51:44;9.33;;;7.53;;
13415;SDS011;6779;50.150;8.680;2023-04-08T01:54:10;9.10;;;7.53;;
13415;SDS011;6779;50.150;8.680;2023-04-08T01:56:37;8.87;;;7.97;;
13415;SDS011;6779;50.150;8.680;2023-04-08T01:59:04;9.73;;;7.97;;
13415;SDS011;6779;50.150;8.680;2023-04-08T02:01:33;9.73;;;8.10;;
13415;SDS011;6779;50.150;8.680;2023-04-08T02:03:59;9.33;;;8.37;;
13415;SDS011;6779;50.150;8.680;2023-04-08T02:06:25;8.97;;;8.03;;
13415;SDS011;6779;50.150;8.680;2023-04-08T02:08:51;9.73;;;8.70;;
13415;SDS011;6779;50.150;8.680;2023-04-08T02:11:17;9.30;;;8.40;;
13415;SDS011;6779;50.150;8.680;2023-04-08T02:13:43;9.40;;;8.40;;
13415;SDS011;6779;50.150;8.680;2023-04-08T02:16:20;10.00;;;8.23;;
13415;SDS011;6779;50.150;8.680;2023-04-08T02:18:50;8.83;;;7.93;;
13415;SDS011;6779;50.150;8.680;2023-04-08T02:21:30;9.23;;;8.33;;
13415;SDS011;6779;50.150;8.680;2023-04-08T02:23:59;8.90;;;7.70;;
13415;SDS011;6779;50.150;8.680;2023-04-08T02:26:29;10.60;;;8.50;;
13415;SDS011;6779;50.150;8.680;2023-04-08T02:28:57;9.13;;;8.23;;
13415;SDS011;6779;50.150;8.680;2023-04-08T02:31:23;9.60;;;8.60;;
13415;SDS011;6779;50.150;8.680;2023-04-08T02:33:49;8.90;;;8.00;;
13415;SDS011;6779;50.150;8.680;2023-04-08T02:36:15;9.97;;;8.97;;
13415;SDS011;6779;50.150;8.680;2023-04-08T02:38:41;9.97;;;8.60;;
13415;SDS011;6779;50.150;8.680;2023-04-08T02:41:06;10.03;;;9.03;;
13415;SDS011;6779;50.150;8.680;2023-04-08T02:43:32;10.90;;;9.13;;
13415;SDS011;6779;50.150;8.680;2023-04-08T02:45:57;9.97;;;8.97;;
13415;SDS011;6779;50.150;8.680;2023-04-08T02:48:28;10.23;;;9.17;;
13415;SDS011;6779;50.150;8.680;2023-04-08T02:50:54;9.90;;;8.87;;
13415;SDS011;6779;50.150;8.680;2023-04-08T02:53:20;9.63;;;8.67;;
13415;SDS011;6779;50.150;8.680;2023-04-08T02:55:47;9.40;;;8.47;;
13415;SDS011;6779;50.150;8.680;2023-04-08T02:58:12;11.37;;;9.23;;
13415;SDS011;6779;50.150;8.680;2023-04-08T03:00:37;10.57;;;9.37;;
13415;SDS011;6779;50.150;8.680;2023-04-08T03:03:03;12.43;;;9.87;;
13415;SDS011;6779;50.150;8.680;2023-04-08T03:05:30;10.87;;;9.77;;
13415;SDS011;6779;50.150;8.680;2023-04-08T03:07:55;11.10;;;9.87;;
13415;SDS011;6779;50.150;8.680;2023-04-08T03:10:20;11.20;;;9.63;;
13415;SDS011;6779;50.150;8.680;2023-04-08T03:12:46;11.13;;;9.87;;
13415;SDS011;6779;50.150;8.680;2023-04-08T03:15:11;11.23;;;9.67;;
13415;SDS011;6779;50.150;8.680;2023-04-08T03:17:36;11.50;;;10.30;;
13415;SDS011;6779;50.150;8.680;2023-04-08T03:20:02;11.73;;;9.63;;
13415;SDS011;6779;50.150;8.680;2023-04-08T03:22:30;10.83;;;9.73;;
13415;SDS011;6779;50.150;8.680;2023-04-08T03:24:56;10.60;;;9.50;;
13415;SDS011;6779;50.150;8.680;2023-04-08T03:27:22;11.40;;;10.20;;
13415;SDS011;6779;50.150;8.680;2023-04-08T03:29:47;11.63;;;10.27;;
13415;SDS011;6779;50.150;8.680;2023-04-08T03:32:13;12.43;;;10.87;;
13415;SDS011;6779;50.150;8.680;2023-04-08T03:34:38;12.20;;;10.27;;
13415;SDS011;6779;50.150;8.680;2023-04-08T03:37:03;11.87;;;10.37;;
13415;SDS011;6779;50.150;8.680;2023-04-08T03:39:29;11.57;;;10.37;;
13415;SDS011;6779;50.150;8.680;2023-04-08T03:41:55;11.97;;;9.93;;
13415;SDS011;6779;50.150;8.680;2023-04-08T03:44:20;14.33;;;10.83;;
13415;SDS011;6779;50.150;8.680;2023-04-08T03:46:45;11.17;;;9.30;;
13415;SDS011;6779;50.150;8.680;2023-04-08T03:49:11;16.07;;;10.63;;
13415;SDS011;6779;50.150;8.680;2023-04-08T03:51:36;13.17;;;10.80;;
13415;SDS011;6779;50.150;8.680;2023-04-08T03:54:01;13.80;;;10.53;;
13415;SDS011;6779;50.150;8.680;2023-04-08T03:56:26;14.13;;;10.80;;
13415;SDS011;6779;50.150;8.680;2023-04-08T03:58:52;14.10;;;11.20;;
13415;SDS011;6779;50.150;8.680;2023-04-08T04:01:17;13.77;;;11.07;;
13415;SDS011;6779;50.150;8.680;2023-04-08T04:03:42;12.77;;;10.03;;
13415;SDS011;6779;50.150;8.680;2023-04-08T04:06:08;15.97;;;9.77;;
13415;SDS011;6779;50.150;8.680;2023-04-08T04:08:34;12.40;;;10.43;;
13415;SDS011;6779;50.150;8.680;2023-04-08T04:10:59;13.07;;;10.17;;
13415;SDS011;6779;50.150;8.680;2023-04-08T04:13:24;11.53;;;10.07;;
13415;SDS011;6779;50.150;8.680;2023-04-08T04:15:50;11.23;;;9.47;;
13415;SDS011;6779;50.150;8.680;2023-04-08T04:18:15;11.70;;;9.43;;
13415;SDS011;6779;50.150;8.680;2023-04-08T04:20:40;12.17;;;10.70;;
13415;SDS011;6779;50.150;8.680;2023-04-08T04:23:06;11.43;;;9.30;;
13415;SDS011;6779;50.150;8.680;2023-04-08T04:25:31;11.40;;;9.60;;
13415;SDS011;6779;50.150;8.680;2023-04-08T04:27:57;10.87;;;9.60;;
13415;SDS011;6779;50.150;8.680;2023-04-08T04:30:22;11.33;;;10.07;;
13415;SDS011;6779;50.150;8.680;2023-04-08T04:32:48;14.43;;;10.47;;
13415;SDS011;6779;50.150;8.680;2023-04-08T04:35:13;10.63;;;9.07;;
13415;SDS011;6779;50.150;8.680;2023-04-08T04:37:38;11.53;;;9.40;;
13415;SDS011;6779;50.150;8.680;2023-04-08T04:40:04;14.20;;;10.20;;
13415;SDS011;6779;50.150;8.680;2023-04-08T04:42:30;12.40;;;9.97;;
13415;SDS011;6779;50.150;8.680;2023-04-08T04:44:55;12.07;;;9.90;;
13415;SDS011;6779;50.150;8.680;2023-04-08T04:47:21;10.90;;;9.03;;
13415;SDS011;6779;50.150;8.680;2023-04-08T04:49:46;11.07;;;9.77;;
13415;SDS011;6779;50.150;8.680;2023-04-08T04:52:12;12.57;;;10.57;;
13415;SDS011;6779;50.150;8.680;2023-04-08T04:54:37;12.40;;;9.83;;
13415;SDS011;6779;50.150;8.680;2023-04-08T04:57:02;11.53;;;9.73;;
13415;SDS011;6779;50.150;8.680;2023-04-08T04:59:28;11.33;;;9.27;;
13415;SDS011;6779;50.150;8.680;2023-04-08T05:01:53;11.87;;;10.43;;
13415;SDS011;6779;50.150;8.680;2023-04-08T05:04:21;13.13;;;9.90;;
13415;SDS011;6779;50.150;8.680;2023-04-08T05:06:47;11.83;;;10.20;;
13415;SDS011;6779;50.150;8.680;2023-04-08T05:09:12;13.13;;;10.27;;
13415;SDS011;6779;50.150;8.680;2023-04-08T05:11:37;13.43;;;10.87;;
13415;SDS011;6779;50.150;8.680;2023-04-08T05:14:03;15.27;;;10.47;;
13415;SDS011;6779;50.150;8.680;2023-04-08T05:16:28;12.27;;;9.90;;
13415;SDS011;6779;50.150;8.680;2023-04-08T05:18:53;12.50;;;10.10;;
13415;SDS011;6779;50.150;8.680;2023-04-08T05:21:18;12.53;;;10.27;;
13415;SDS011;6779;50.150;8.680;2023-04-08T05:23:44;13.30;;;10.60;;
13415;SDS011;6779;50.150;8.680;2023-04-08T05:26:09;13.03;;;10.37;;
13415;SDS011;6779;50.150;8.680;2023-04-08T05:28:35;12.13;;;10.53;;
13415;SDS011;6779;50.150;8.680;2023-04-08T05:31:00;12.60;;;10.50;;
13415;SDS011;6779;50.150;8.680;2023-04-08T05:33:25;12.60;;;10.83;;
13415;SDS011;6779;50.150;8.680;2023-04-08T05:35:51;13.03;;;11.33;;
13415;SDS011;6779;50.150;8.680;2023-04-08T05:38:17;14.17;;;11.17;;
13415;SDS011;6779;50.150;8.680;2023-04-08T05:40:42;13.10;;;10.67;;
13415;SDS011;6779;50.150;8.680;2023-04-08T05:43:08;12.90;;;10.90;;
13415;SDS011;6779;50.150;8.680;2023-04-08T05:45:33;14.00;;;10.93;;
13415;SDS011;6779;50.150;8.680;2023-04-08T05:47:58;13.17;;;11.00;;
13415;SDS011;6779;50.150;8.680;2023-04-08T05:50:24;12.83;;;11.30;;
13415;SDS011;6779;50.150;8.680;2023-04-08T05:52:49;14.37;;;11.00;;
13415;SDS011;6779;50.150;8.680;2023-04-08T05:55:14;14.00;;;11.63;;
13415;SDS011;6779;50.150;8.680;2023-04-08T05:57:40;15.63;;;11.87;;
13415;SDS011;6779;50.150;8.680;2023-04-08T06:00:06;13.00;;;10.90;;
13415;SDS011;6779;50.150;8.680;2023-04-08T06:02:33;12.37;;;10.93;;
13415;SDS011;6779;50.150;8.680;2023-04-08T06:04:59;11.97;;;9.73;;
13415;SDS011;6779;50.150;8.680;2023-04-08T06:07:24;13.37;;;10.60;;
13415;SDS011;6779;50.150;8.680;2023-04-08T06:09:50;11.43;;;10.20;;
13415;SDS011;6779;50.150;8.680;2023-04-08T06:12:15;16.30;;;12.23;;
13415;SDS011;6779;50.150;8.680;2023-04-08T06:14:40;12.43;;;10.77;;
13415;SDS011;6779;50.150;8.680;2023-04-08T06:17:06;14.07;;;11.57;;
13415;SDS011;6779;50.150;8.680;2023-04-08T06:19:31;12.53;;;10.87;;
13415;SDS011;6779;50.150;8.680;2023-04-08T06:21:56;13.57;;;11.10;;
13415;SDS011;6779;50.150;8.680;2023-04-08T06:24:23;15.33;;;11.70;;
13415;SDS011;6779;50.150;8.680;2023-04-08T06:26:51;13.83;;;10.97;;
13415;SDS011;6779;50.150;8.680;2023-04-08T06:29:17;15.67;;;11.57;;
13415;SDS011;6779;50.150;8.680;2023-04-08T06:31:43;12.83;;;10.73;;
13415;SDS011;6779;50.150;8.680;2023-04-08T06:34:08;15.27;;;11.67;;
13415;SDS011;6779;50.150;8.680;2023-04-08T06:36:33;14.80;;;10.97;;
13415;SDS011;6779;50.150;8.680;2023-04-08T06:38:58;12.53;;;11.23;;
13415;SDS011;6779;50.150;8.680;2023-04-08T06:41:24;15.97;;;11.97;;
13415;SDS011;6779;50.150;8.680;2023-04-08T06:43:49;12.90;;;10.37;;
13415;SDS011;6779;50.150;8.680;2023-04-08T06:46:15;11.90;;;10.43;;
13415;SDS011;6779;50.150;8.680;2023-04-08T06:48:40;13.60;;;10.67;;
13415;SDS011;6779;50.150;8.680;2023-04-08T06:51:05;13.60;;;11.47;;
13415;SDS011;6779;50.150;8.680;2023-04-08T06:53:31;13.77;;;11.20;;
13415;SDS011;6779;50.150;8.680;2023-04-08T06:55:57;14.20;;;11.20;;
13415;SDS011;6779;50.150;8.680;2023-04-08T06:58:23;12.83;;;11.43;;
13415;SDS011;6779;50.150;8.680;2023-04-08T07:00:48;14.17;;;11.60;;
13415;SDS011;6779;50.150;8.680;2023-04-08T07:03:13;11.93;;;10.53;;
13415;SDS011;6779;50.150;8.680;2023-04-08T07:05:39;14.77;;;11.17;;
13415;SDS011;6779;50.150;8.680;2023-04-08T07:08:06;13.47;;;12.07;;
13415;SDS011;6779;50.150;8.680;2023-04-08T07:10:31;13.47;;;11.20;;
13415;SDS011;6779;50.150;8.680;2023-04-08T07:12:56;13.63;;;10.93;;
13415;SDS011;6779;50.150;8.680;2023-04-08T07:15:22;13.13;;;11.73;;
13415;SDS011;6779;50.150;8.680;2023-04-08T07:17:47;13.17;;;11.57;;
13415;SDS011;6779;50.150;8.680;2023-04-08T07:20:12;11.87;;;10.63;;
13415;SDS011;6779;50.150;8.680;2023-04-08T07:22:38;12.50;;;10.97;;
13415;SDS011;6779;50.150;8.680;2023-04-08T07:25:04;13.03;;;11.57;;
13415;SDS011;6779;50.150;8.680;2023-04-08T07:27:30;13.37;;;11.17;;
13415;SDS011;6779;50.150;8.680;2023-04-08T07:29:55;13.20;;;10.80;;
13415;SDS011;6779;50.150;8.680;2023-04-08T07:32:21;13.20;;;10.20;;
13415;SDS011;6779;50.150;8.680;2023-04-08T07:34:47;13.03;;;10.50;;
13415;SDS011;6779;50.150;8.680;2023-04-08T07:37:12;11.53;;;9.87;;
13415;SDS011;6779;50.150;8.680;2023-04-08T07:39:38;10.20;;;9.13;;
13415;SDS011;6779;50.150;8.680;2023-04-08T07:42:03;13.70;;;10.43;;
13415;SDS011;6779;50.150;8.680;2023-04-08T07:44:28;11.47;;;10.27;;
13415;SDS011;6779;50.150;8.680;2023-04-08T07:46:54;12.20;;;10.93;;
13415;SDS011;6779;50.150;8.680;2023-04-08T07:49:19;12.77;;;10.63;;
13415;SDS011;6779;50.150;8.680;2023-04-08T07:51:45;12.63;;;11.37;;
13415;SDS011;6779;50.150;8.680;2023-04-08T07:54:10;12.50;;;11.07;;
13415;SDS011;6779;50.150;8.680;2023-04-08T07:56:36;12.73;;;11.23;;
13415;SDS011;6779;50.150;8.680;2023-04-08T07:59:04;12.20;;;10.33;;
13415;SDS011;6779;50.150;8.680;2023-04-08T08:01:30;13.70;;;11.47;;
13415;SDS011;6779;50.150;8.680;2023-04-08T08:03:58;14.43;;;11.57;;
13415;SDS011;6779;50.150;8.680;2023-04-08T08:06:24;11.97;;;10.27;;
13415;SDS011;6779;50.150;8.680;2023-04-08T08:08:50;12.47;;;10.47;;
13415;SDS011;6779;50.150;8.680;2023-04-08T08:11:15;13.20;;;11.27;;
13415;SDS011;6779;50.150;8.680;2023-04-08T08:13:40;14.03;;;11.13;;
13415;SDS011;6779;50.150;8.680;2023-04-08T08:16:05;14.03;;;11.10;;
13415;SDS011;6779;50.150;8.680;2023-04-08T08:18:32;13.07;;;11.70;;
13415;SDS011;6779;50.150;8.680;2023-04-08T08:21:00;12.63;;;11.33;;
13415;SDS011;6779;50.150;8.680;2023-04-08T08:23:25;13.37;;;11.80;;
13415;SDS011;6779;50.150;8.680;2023-04-08T08:25:57;14.40;;;11.50;;
13415;SDS011;6779;50.150;8.680;2023-04-08T08:28:23;14.20;;;11.87;;
13415;SDS011;6779;50.150;8.680;2023-04-08T08:30:48;15.10;;;11.77;;
13415;SDS011;6779;50.150;8.680;2023-04-08T08:33:14;12.63;;;10.47;;
13415;SDS011;6779;50.150;8.680;2023-04-08T08:35:40;13.13;;;11.63;;
13415;SDS011;6779;50.150;8.680;2023-04-08T08:38:05;12.57;;;11.27;;
13415;SDS011;6779;50.150;8.680;2023-04-08T08:40:31;13.70;;;12.20;;
13415;SDS011;6779;50.150;8.680;2023-04-08T08:42:56;13.10;;;10.97;;
13415;SDS011;6779;50.150;8.680;2023-04-08T08:45:23;15.17;;;12.17;;
13415;SDS011;6779;50.150;8.680;2023-04-08T08:47:48;12.93;;;11.53;;
13415;SDS011;6779;50.150;8.680;2023-04-08T08:50:13;15.67;;;12.97;;
13415;SDS011;6779;50.150;8.680;2023-04-08T08:52:46;13.03;;;11.50;;
13415;SDS011;6779;50.150;8.680;2023-04-08T08:55:12;12.90;;;11.47;;
13415;SDS011;6779;50.150;8.680;2023-04-08T08:57:37;13.17;;;11.77;;
13415;SDS011;6779;50.150;8.680;2023-04-08T09:00:03;13.80;;;11.63;;
13415;SDS011;6779;50.150;8.680;2023-04-08T09:02:29;13.40;;;12.00;;
13415;SDS011;6779;50.150;8.680;2023-04-08T09:04:56;14.30;;;11.50;;
13415;SDS011;6779;50.150;8.680;2023-04-08T09:07:23;12.30;;;11.07;;
13415;SDS011;6779;50.150;8.680;2023-04-08T09:09:51;12.97;;;11.33;;
13415;SDS011;6779;50.150;8.680;2023-04-08T09:12:16;11.87;;;10.63;;
13415;SDS011;6779;50.150;8.680;2023-04-08T09:14:42;19.03;;;14.87;;
13415;SDS011;6779;50.150;8.680;2023-04-08T09:17:07;14.50;;;11.60;;
13415;SDS011;6779;50.150;8.680;2023-04-08T09:19:33;12.37;;;10.63;;
13415;SDS011;6779;50.150;8.680;2023-04-08T09:22:04;14.07;;;10.33;;
13415;SDS011;6779;50.150;8.680;2023-04-08T09:24:34;13.03;;;9.50;;
13415;SDS011;6779;50.150;8.680;2023-04-08T09:27:01;11.43;;;9.70;;
13415;SDS011;6779;50.150;8.680;2023-04-08T09:29:26;12.37;;;10.30;;
13415;SDS011;6779;50.150;8.680;2023-04-08T09:31:58;15.13;;;11.13;;
13415;SDS011;6779;50.150;8.680;2023-04-08T09:34:24;10.80;;;9.63;;
13415;SDS011;6779;50.150;8.680;2023-04-08T09:36:51;11.17;;;9.60;;
13415;SDS011;6779;50.150;8.680;2023-04-08T09:39:17;11.40;;;9.10;;
13415;SDS011;6779;50.150;8.680;2023-04-08T09:41:43;13.80;;;10.10;;
13415;SDS011;6779;50.150;8.680;2023-04-08T09:44:09;10.27;;;8.80;;
13415;SDS011;6779;50.150;8.680;2023-04-08T09:46:38;11.63;;;8.97;;
13415;SDS011;6779;50.150;8.680;2023-04-08T09:49:26;10.63;;;9.53;;
13415;SDS011;6779;50.150;8.680;2023-04-08T09:54:41;9.77;;;8.50;;
13415;SDS011;6779;50.150;8.680;2023-04-08T09:57:10;11.20;;;8.73;;
13415;SDS011;6779;50.150;8.680;2023-04-08T09:59:38;10.77;;;8.87;;
13415;SDS011;6779;50.150;8.680;2023-04-08T10:02:08;10.23;;;8.40;;
13415;SDS011;6779;50.150;8.680;2023-04-08T10:04:36;9.40;;;8.50;;
13415;SDS011;6779;50.150;8.680;2023-04-08T10:07:03;10.90;;;9.47;;
13415;SDS011;6779;50.150;8.680;2023-04-08T10:09:28;13.00;;;8.30;;
13415;SDS011;6779;50.150;8.680;2023-04-08T10:11:54;10.03;;;9.03;;
13415;SDS011;6779;50.150;8.680;2023-04-08T10:14:20;9.57;;;8.27;;
13415;SDS011;6779;50.150;8.680;2023-04-08T10:16:46;11.07;;;7.00;;
13415;SDS011;6779;50.150;8.680;2023-04-08T10:22:03;9.93;;;7.37;;
13415;SDS011;6779;50.150;8.680;2023-04-08T10:24:30;7.60;;;6.80;;
13415;SDS011;6779;50.150;8.680;2023-04-08T10:26:55;9.73;;;7.20;;
13415;SDS011;6779;50.150;8.680;2023-04-08T10:31:49;10.20;;;7.53;;
13415;SDS011;6779;50.150;8.680;2023-04-08T10:34:15;8.67;;;7.07;;
13415;SDS011;6779;50.150;8.680;2023-04-08T10:36:49;8.03;;;6.97;;
13415;SDS011;6779;50.150;8.680;2023-04-08T10:39:15;8.10;;;7.30;;
13415;SDS011;6779;50.150;8.680;2023-04-08T10:41:44;8.80;;;6.97;;
13415;SDS011;6779;50.150;8.680;2023-04-08T10:44:19;8.17;;;6.83;;
13415;SDS011;6779;50.150;8.680;2023-04-08T10:46:50;9.40;;;7.13;;
13415;SDS011;6779;50.150;8.680;2023-04-08T10:49:17;7.10;;;6.40;;
13415;SDS011;6779;50.150;8.680;2023-04-08T10:51:43;6.50;;;5.90;;
13415;SDS011;6779;50.150;8.680;2023-04-08T10:54:09;6.78;;;6.07;;
13415;SDS011;6779;50.150;8.680;2023-04-08T10:56:36;6.50;;;5.90;;
13415;SDS011;6779;50.150;8.680;2023-04-08T10:59:08;7.67;;;6.97;;
13415;SDS011;6779;50.150;8.680;2023-04-08T11:01:37;7.70;;;6.90;;
13415;SDS011;6779;50.150;8.680;2023-04-08T11:04:12;7.53;;;6.57;;
13415;SDS011;6779;50.150;8.680;2023-04-08T11:06:38;12.27;;;7.40;;
13415;SDS011;6779;50.150;8.680;2023-04-08T11:09:04;9.20;;;7.67;;
13415;SDS011;6779;50.150;8.680;2023-04-08T11:11:29;7.47;;;6.70;;
13415;SDS011;6779;50.150;8.680;2023-04-08T11:13:55;7.03;;;6.43;;
13415;SDS011;6779;50.150;8.680;2023-04-08T11:16:21;8.60;;;7.13;;
13415;SDS011;6779;50.150;8.680;2023-04-08T11:18:46;9.03;;;6.77;;
13415;SDS011;6779;50.150;8.680;2023-04-08T11:21:12;8.13;;;7.33;;
13415;SDS011;6779;50.150;8.680;2023-04-08T11:23:37;8.07;;;7.27;;
13415;SDS011;6779;50.150;8.680;2023-04-08T11:26:03;8.27;;;6.63;;
13415;SDS011;6779;50.150;8.680;2023-04-08T11:28:28;7.23;;;6.53;;
13415;SDS011;6779;50.150;8.680;2023-04-08T11:30:54;7.30;;;6.50;;
13415;SDS011;6779;50.150;8.680;2023-04-08T11:33:19;7.93;;;7.23;;
13415;SDS011;6779;50.150;8.680;2023-04-08T11:35:49;9.40;;;7.57;;
13415;SDS011;6779;50.150;8.680;2023-04-08T11:38:15;9.03;;;7.80;;
13415;SDS011;6779;50.150;8.680;2023-04-08T11:40:40;9.23;;;7.70;;
13415;SDS011;6779;50.150;8.680;2023-04-08T11:43:16;9.67;;;8.00;;
13415;SDS011;6779;50.150;8.680;2023-04-08T11:45:41;9.43;;;7.90;;
13415;SDS011;6779;50.150;8.680;2023-04-08T11:48:08;9.73;;;8.73;;
13415;SDS011;6779;50.150;8.680;2023-04-08T11:50:34;9.07;;;8.07;;
13415;SDS011;6779;50.150;8.680;2023-04-08T11:52:59;9.67;;;8.17;;
13415;SDS011;6779;50.150;8.680;2023-04-08T11:55:29;9.10;;;8.07;;
13415;SDS011;6779;50.150;8.680;2023-04-08T11:57:55;9.93;;;8.43;;
13415;SDS011;6779;50.150;8.680;2023-04-08T12:00:22;10.10;;;8.20;;
13415;SDS011;6779;50.150;8.680;2023-04-08T12:02:48;8.73;;;7.73;;
13415;SDS011;6779;50.150;8.680;2023-04-08T12:05:14;9.40;;;7.73;;
13415;SDS011;6779;50.150;8.680;2023-04-08T12:07:39;9.77;;;8.30;;
13415;SDS011;6779;50.150;8.680;2023-04-08T12:10:05;12.10;;;8.23;;
13415;SDS011;6779;50.150;8.680;2023-04-08T12:12:31;8.37;;;7.57;;
13415;SDS011;6779;50.150;8.680;2023-04-08T12:14:56;9.40;;;7.90;;
13415;SDS011;6779;50.150;8.680;2023-04-08T12:17:22;8.13;;;7.33;;
13415;SDS011;6779;50.150;8.680;2023-04-08T12:19:47;8.97;;;7.47;;
13415;SDS011;6779;50.150;8.680;2023-04-08T12:22:12;10.67;;;8.37;;
13415;SDS011;6779;50.150;8.680;2023-04-08T12:24:38;9.47;;;8.57;;
13415;SDS011;6779;50.150;8.680;2023-04-08T12:27:03;8.93;;;7.80;;
13415;SDS011;6779;50.150;8.680;2023-04-08T12:29:29;12.00;;;7.97;;
13415;SDS011;6779;50.150;8.680;2023-04-08T12:31:54;10.17;;;7.93;;
13415;SDS011;6779;50.150;8.680;2023-04-08T12:34:20;10.13;;;7.90;;
13415;SDS011;6779;50.150;8.680;2023-04-08T12:36:45;9.53;;;8.20;;
13415;SDS011;6779;50.150;8.680;2023-04-08T12:39:11;10.27;;;8.60;;
13415;SDS011;6779;50.150;8.680;2023-04-08T12:41:36;8.77;;;7.67;;
13415;SDS011;6779;50.150;8.680;2023-04-08T12:44:02;8.60;;;7.70;;
13415;SDS011;6779;50.150;8.680;2023-04-08T12:46:27;8.10;;;7.20;;
13415;SDS011;6779;50.150;8.680;2023-04-08T12:48:53;9.37;;;8.30;;
13415;SDS011;6779;50.150;8.680;2023-04-08T12:51:18;9.27;;;8.00;;
13415;SDS011;6779;50.150;8.680;2023-04-08T12:53:44;8.53;;;7.67;;
13415;SDS011;6779;50.150;8.680;2023-04-08T12:56:09;9.93;;;8.00;;
13415;SDS011;6779;50.150;8.680;2023-04-08T12:58:34;8.67;;;7.80;;
13415;SDS011;6779;50.150;8.680;2023-04-08T13:01:00;8.03;;;7.07;;
13415;SDS011;6779;50.150;8.680;2023-04-08T13:03:25;8.57;;;7.40;;
13415;SDS011;6779;50.150;8.680;2023-04-08T13:05:54;8.53;;;7.30;;
13415;SDS011;6779;50.150;8.680;2023-04-08T13:08:19;8.80;;;7.70;;
13415;SDS011;6779;50.150;8.680;2023-04-08T13:10:44;8.50;;;6.90;;
13415;SDS011;6779;50.150;8.680;2023-04-08T13:13:10;8.33;;;7.53;;
13415;SDS011;6779;50.150;8.680;2023-04-08T13:15:38;10.57;;;7.83;;
13415;SDS011;6779;50.150;8.680;2023-04-08T13:18:03;8.30;;;7.40;;
13415;SDS011;6779;50.150;8.680;2023-04-08T13:20:28;10.00;;;8.30;;
13415;SDS011;6779;50.150;8.680;2023-04-08T13:22:54;9.37;;;7.80;;
13415;SDS011;6779;50.150;8.680;2023-04-08T13:25:19;9.43;;;7.80;;
13415;SDS011;6779;50.150;8.680;2023-04-08T13:27:45;9.97;;;8.60;;
13415;SDS011;6779;50.150;8.680;2023-04-08T13:30:10;10.93;;;8.47;;
13415;SDS011;6779;50.150;8.680;2023-04-08T13:32:36;10.10;;;8.70;;
13415;SDS011;6779;50.150;8.680;2023-04-08T13:35:01;10.47;;;8.20;;
13415;SDS011;6779;50.150;8.680;2023-04-08T13:37:27;9.83;;;8.57;;
13415;SDS011;6779;50.150;8.680;2023-04-08T13:39:52;9.13;;;8.13;;
13415;SDS011;6779;50.150;8.680;2023-04-08T13:42:17;10.53;;;8.80;;
13415;SDS011;6779;50.150;8.680;2023-04-08T13:44:43;9.50;;;8.53;;
13415;SDS011;6779;50.150;8.680;2023-04-08T13:47:08;8.73;;;7.77;;
13415;SDS011;6779;50.150;8.680;2023-04-08T13:49:33;10.03;;;8.20;;
13415;SDS011;6779;50.150;8.680;2023-04-08T13:51:59;10.23;;;8.73;;
13415;SDS011;6779;50.150;8.680;2023-04-08T13:54:24;9.83;;;8.53;;
13415;SDS011;6779;50.150;8.680;2023-04-08T13:56:49;9.90;;;8.43;;
13415;SDS011;6779;50.150;8.680;2023-04-08T13:59:15;10.67;;;8.40;;
13415;SDS011;6779;50.150;8.680;2023-04-08T14:01:40;9.57;;;8.50;;
13415;SDS011;6779;50.150;8.680;2023-04-08T14:04:05;12.83;;;8.37;;
13415;SDS011;6779;50.150;8.680;2023-04-08T14:06:31;9.30;;;8.37;;
13415;SDS011;6779;50.150;8.680;2023-04-08T14:08:56;9.53;;;8.27;;
13415;SDS011;6779;50.150;8.680;2023-04-08T14:11:21;9.63;;;7.60;;
13415;SDS011;6779;50.150;8.680;2023-04-08T14:13:47;8.57;;;7.63;;
13415;SDS011;6779;50.150;8.680;2023-04-08T14:16:12;8.90;;;8.00;;
13415;SDS011;6779;50.150;8.680;2023-04-08T14:18:38;9.87;;;8.57;;
13415;SDS011;6779;50.150;8.680;2023-04-08T14:21:03;11.07;;;8.97;;
13415;SDS011;6779;50.150;8.680;2023-04-08T14:23:29;11.17;;;8.70;;
13415;SDS011;6779;50.150;8.680;2023-04-08T14:25:54;11.80;;;9.50;;
13415;SDS011;6779;50.150;8.680;2023-04-08T14:28:19;10.33;;;9.23;;
13415;SDS011;6779;50.150;8.680;2023-04-08T14:30:45;11.87;;;10.23;;
13415;SDS011;6779;50.150;8.680;2023-04-08T14:33:11;10.93;;;9.60;;
13415;SDS011;6779;50.150;8.680;2023-04-08T14:35:36;10.60;;;9.50;;
13415;SDS011;6779;50.150;8.680;2023-04-08T14:38:02;12.53;;;10.67;;
13415;SDS011;6779;50.150;8.680;2023-04-08T14:40:27;13.23;;;10.10;;
13415;SDS011;6779;50.150;8.680;2023-04-08T14:42:52;19.90;;;11.43;;
13415;SDS011;6779;50.150;8.680;2023-04-08T14:45:17;11.50;;;10.30;;
13415;SDS011;6779;50.150;8.680;2023-04-08T14:47:43;21.20;;;10.27;;
13415;SDS011;6779;50.150;8.680;2023-04-08T14:50:08;12.97;;;11.03;;
13415;SDS011;6779;50.150;8.680;2023-04-08T14:52:34;11.73;;;10.50;;
13415;SDS011;6779;50.150;8.680;2023-04-08T14:54:59;13.00;;;11.57;;